createdAt,value
2019-02-16T00:01:43.468Z,0.80
2019-02-16T00:04:12.369Z,0.87
2019-02-16T00:06:41.269Z,0.92
2019-02-16T00:09:10.369Z,0.97
2019-02-16T00:11:39.667Z,1.02
2019-02-16T00:14:09.587Z,1.16
2019-02-16T00:16:38.812Z,1.06
2019-02-16T00:19:08.761Z,0.90
2019-02-16T00:21:38.583Z,0.84
2019-02-16T00:24:07.941Z,0.86
2019-02-16T00:26:37.307Z,0.83
2019-02-16T00:29:06.321Z,0.82
2019-02-16T00:31:36.215Z,0.91
2019-02-16T00:34:05.954Z,0.93
2019-02-16T00:36:35.147Z,0.84
2019-02-16T00:39:04.201Z,0.82
2019-02-16T00:41:33.853Z,0.84
2019-02-16T00:44:02.952Z,0.74
2019-02-16T00:46:32.230Z,0.74
2019-02-16T00:49:01.258Z,0.77
2019-02-16T00:51:30.327Z,0.75
2019-02-16T00:53:59.587Z,0.72
2019-02-16T00:56:28.835Z,0.76
2019-02-16T00:58:57.715Z,0.80
2019-02-16T01:01:27.428Z,0.77
2019-02-16T01:03:56.838Z,0.78
2019-02-16T01:06:25.928Z,0.79
2019-02-16T01:08:54.848Z,0.79
2019-02-16T01:11:24.471Z,0.81
2019-02-16T01:13:53.316Z,0.77
2019-02-16T01:16:23.013Z,0.68
2019-02-16T01:18:52.329Z,0.61
2019-02-16T01:21:23.059Z,0.64
2019-02-16T01:23:51.579Z,0.65
2019-02-16T01:26:20.442Z,0.67
2019-02-16T01:28:50.256Z,0.66
2019-02-16T01:48:04.136Z,0.63
2019-02-16T01:50:33.599Z,0.66
2019-02-16T01:53:02.496Z,0.63
2019-02-16T01:55:31.411Z,0.59
2019-02-16T01:58:00.830Z,0.66
2019-02-16T02:00:29.877Z,0.69
2019-02-16T02:02:58.772Z,0.65
2019-02-16T02:05:28.285Z,0.71
2019-02-16T02:07:57.114Z,0.75
2019-02-16T02:10:26.523Z,0.79
2019-02-16T02:12:55.507Z,0.77
2019-02-16T02:15:24.787Z,0.80
2019-02-16T02:17:53.803Z,0.84
2019-02-16T02:20:22.579Z,0.83
2019-02-16T02:22:51.664Z,0.82
2019-02-16T02:25:20.550Z,0.68
2019-02-16T02:27:50.277Z,0.69
2019-02-16T02:47:05.173Z,0.59
2019-02-16T02:49:35.056Z,0.56
2019-02-16T02:52:04.177Z,0.60
2019-02-16T02:54:33.288Z,0.58
2019-02-16T02:57:02.244Z,0.42
2019-02-16T02:59:31.176Z,0.46
2019-02-16T03:02:01.137Z,0.40
2019-02-16T03:04:30.653Z,0.45
2019-02-16T03:06:59.768Z,0.49
2019-02-16T03:09:29.190Z,0.39
2019-02-16T03:11:58.023Z,0.48
2019-02-16T03:14:27.039Z,0.56
2019-02-16T03:16:56.321Z,0.58
2019-02-16T03:19:26.458Z,0.58
2019-02-16T03:22:02.421Z,0.56
2019-02-16T03:24:24.284Z,0.48
2019-02-16T03:26:59.785Z,0.45
2019-02-16T03:29:34.599Z,0.42
2019-02-16T03:32:30.719Z,0.40
2019-02-16T03:35:16.395Z,0.44
2019-02-16T03:37:55.669Z,0.50
2019-02-16T03:40:25.267Z,0.51
2019-02-16T03:42:54.795Z,0.61
2019-02-16T03:45:23.959Z,0.56
2019-02-16T03:47:53.158Z,0.58
2019-02-16T03:50:23.082Z,0.57
2019-02-16T03:52:51.982Z,0.46
2019-02-16T03:55:21.020Z,0.43
2019-02-16T03:57:49.862Z,0.38
2019-02-16T04:00:20.086Z,0.38
2019-02-16T04:02:49.553Z,0.42
2019-02-16T04:05:18.601Z,0.41
2019-02-16T04:07:49.060Z,0.41
2019-02-16T04:10:18.174Z,0.46
2019-02-16T04:12:47.259Z,0.33
2019-02-16T04:15:16.234Z,0.26
2019-02-16T04:17:45.356Z,0.33
2019-02-16T04:20:14.409Z,0.24
2019-02-16T04:22:43.902Z,0.29
2019-02-16T04:25:14.160Z,0.27
2019-02-16T04:27:43.242Z,0.28
2019-02-16T04:30:13.512Z,0.16
2019-02-16T04:32:42.787Z,0.18
2019-02-16T04:35:11.643Z,0.15
2019-02-16T04:37:41.728Z,0.05
2019-02-16T04:40:10.811Z,0.05
2019-02-16T04:42:39.769Z,0.13
2019-02-16T04:45:08.739Z,0.07
2019-02-16T04:47:38.326Z,0.01
2019-02-16T04:50:07.388Z,0.02
2019-02-16T04:52:36.368Z,-0.02
2019-02-16T04:55:05.779Z,0.07
2019-02-16T04:57:34.761Z,0.06
2019-02-16T05:00:03.899Z,0.00
2019-02-16T05:02:32.751Z,0.02
2019-02-16T05:05:01.713Z,-0.12
2019-02-16T05:07:30.684Z,-0.12
2019-02-16T05:10:00.435Z,-0.15
2019-02-16T05:12:29.419Z,-0.12
2019-02-16T05:14:58.387Z,-0.20
2019-02-16T05:17:28.631Z,-0.27
2019-02-16T05:19:57.532Z,-0.18
2019-02-16T05:22:26.412Z,-0.10
2019-02-16T05:24:55.792Z,-0.04
2019-02-16T05:27:25.512Z,0.04
2019-02-16T05:29:54.401Z,-0.01
2019-02-16T05:49:09.930Z,-0.02
2019-02-16T05:51:38.961Z,0.09
2019-02-16T05:54:08.106Z,0.03
2019-02-16T05:56:37.906Z,-0.03
2019-02-16T05:59:08.506Z,-0.04
2019-02-16T06:01:37.465Z,0.03
2019-02-16T06:04:06.955Z,-0.05
2019-02-16T06:06:35.914Z,-0.02
2019-02-16T06:09:05.738Z,-0.07
2019-02-16T06:11:35.982Z,0.11
2019-02-16T06:14:05.823Z,0.06
2019-02-16T06:16:34.907Z,0.12
2019-02-16T06:19:03.982Z,0.23
2019-02-16T06:21:35.177Z,0.24
2019-02-16T06:24:04.336Z,0.23
2019-02-16T06:26:33.829Z,0.32
2019-02-16T06:29:02.885Z,0.38
2019-02-16T06:31:32.920Z,0.48
2019-02-16T06:34:01.904Z,0.52
2019-02-16T06:36:34.094Z,0.56
2019-02-16T06:39:03.804Z,0.80
2019-02-16T07:15:03.431Z,2.02
2019-02-16T07:17:38.684Z,2.10
2019-02-16T07:20:08.461Z,2.19
2019-02-16T07:22:37.765Z,2.26
2019-02-16T07:41:53.324Z,2.75
2019-02-16T07:46:34.111Z,2.98
2019-02-16T07:49:11.033Z,3.12
2019-02-16T07:51:46.607Z,3.41
2019-02-16T07:55:21.372Z,3.41
2019-02-16T07:57:58.496Z,3.36
2019-02-16T08:17:48.400Z,3.22
2019-02-16T08:21:25.947Z,3.64
2019-02-16T08:24:02.352Z,4.01
2019-02-16T08:27:39.528Z,4.03
2019-02-16T08:30:28.427Z,3.74
2019-02-16T08:33:19.035Z,3.97
2019-02-16T08:35:59.772Z,4.16
2019-02-16T08:38:50.542Z,4.61
2019-02-16T08:41:26.804Z,5.12
2019-02-16T09:00:50.902Z,5.83
2019-02-16T09:03:29.768Z,5.65
2019-02-16T09:07:04.718Z,5.50
2019-02-16T09:09:38.792Z,5.85
2019-02-16T09:12:28.138Z,5.92
2019-02-16T09:15:01.459Z,5.93
2019-02-16T09:17:35.696Z,6.17
2019-02-16T09:20:20.734Z,6.57
2019-02-16T09:22:57.831Z,5.94
2019-02-16T09:25:32.215Z,5.40
2019-02-16T09:28:09.313Z,5.36
2019-02-16T09:30:42.479Z,5.52
2019-02-16T09:33:52.937Z,5.79
2019-02-16T09:36:36.147Z,6.25
2019-02-16T09:39:12.280Z,6.27
2019-02-16T09:41:47.042Z,6.50
2019-02-16T09:44:29.071Z,6.77
2019-02-16T09:47:06.563Z,6.79
2019-02-16T09:49:41.296Z,7.09
2019-02-16T09:52:22.399Z,7.01
2019-02-16T09:55:03.447Z,7.38
2019-02-16T09:58:38.243Z,7.58
2019-02-16T10:01:20.715Z,7.90
2019-02-16T10:04:55.575Z,8.04
2019-02-16T10:07:30.634Z,7.94
2019-02-16T10:10:06.528Z,8.24
2019-02-16T10:13:46.329Z,8.01
2019-02-16T10:16:20.423Z,7.67
2019-02-16T10:35:38.063Z,8.57
2019-02-16T10:38:14.166Z,8.77
2019-02-16T10:41:04.239Z,8.60
2019-02-16T10:43:40.091Z,8.81
2019-02-16T10:46:29.991Z,9.07
2019-02-16T10:49:13.437Z,9.14
2019-02-16T10:52:45.189Z,9.41
2019-02-16T10:55:25.218Z,9.71
2019-02-16T10:58:00.648Z,9.73
2019-02-16T11:00:41.559Z,9.43
2019-02-16T11:22:32.871Z,9.15
2019-02-16T11:27:12.884Z,9.12
2019-02-16T11:29:49.670Z,9.59
2019-02-16T11:32:31.304Z,9.33
2019-02-16T11:35:42.566Z,9.55
2019-02-16T11:38:26.028Z,9.44
2019-02-16T11:41:00.271Z,9.66
2019-02-16T11:43:36.005Z,10.19
2019-02-16T11:46:24.471Z,10.40
2019-02-16T11:48:59.288Z,10.73
2019-02-16T11:53:38.853Z,11.03
2019-02-16T11:56:12.939Z,10.71
2019-02-16T11:59:17.471Z,10.75
2019-02-16T12:02:06.406Z,11.10
2019-02-16T12:04:54.045Z,11.34
2019-02-16T12:24:16.301Z,12.34
2019-02-16T12:26:53.627Z,12.93
2019-02-16T12:29:33.716Z,12.85
2019-02-16T12:32:09.867Z,13.29
2019-02-16T12:34:43.102Z,13.55
2019-02-16T12:37:16.159Z,13.99
2019-02-16T12:39:50.362Z,13.95
2019-02-16T12:42:30.449Z,13.86
2019-02-16T12:45:21.345Z,13.69
2019-02-16T12:47:54.431Z,13.55
2019-02-16T12:50:29.472Z,13.18
2019-02-16T12:54:07.932Z,14.72
2019-02-16T12:56:44.293Z,14.12
2019-02-16T12:59:22.352Z,15.21
2019-02-16T13:02:10.542Z,16.51
2019-02-16T13:04:44.870Z,16.24
2019-02-16T13:07:49.290Z,16.24
2019-02-16T13:10:23.107Z,16.02
2019-02-16T13:12:57.612Z,17.29
2019-02-16T13:15:46.494Z,16.69
2019-02-16T13:37:09.171Z,19.94
2019-02-16T13:58:29.952Z,16.74
2019-02-16T14:01:07.286Z,17.44
2019-02-16T14:03:53.067Z,17.40
2019-02-16T14:08:34.339Z,18.32
2019-02-16T14:11:14.300Z,16.67
2019-02-16T14:13:48.755Z,16.14
2019-02-16T14:16:40.040Z,16.44
2019-02-16T14:19:08.762Z,17.25
2019-02-16T14:21:37.896Z,17.50
2019-02-16T14:24:07.787Z,17.55
2019-02-16T14:26:36.764Z,17.26
2019-02-16T14:29:06.639Z,17.06
2019-02-16T14:31:36.584Z,15.91
2019-02-16T14:34:06.196Z,15.98
2019-02-16T14:36:35.385Z,16.07
2019-02-16T14:39:16.508Z,15.34
2019-02-16T14:41:46.394Z,15.77
2019-02-16T14:44:15.312Z,15.12
2019-02-16T14:46:44.964Z,15.25
2019-02-16T14:49:14.511Z,15.07
2019-02-16T14:51:44.237Z,14.74
2019-02-16T14:54:13.121Z,14.07
2019-02-16T14:56:42.097Z,14.52
2019-02-16T15:16:21.864Z,11.05
2019-02-16T15:35:36.052Z,9.84
2019-02-16T15:38:05.617Z,9.66
2019-02-16T15:40:34.515Z,9.30
2019-02-16T15:43:03.632Z,9.25
2019-02-16T15:45:32.771Z,9.09
2019-02-16T15:48:01.504Z,8.85
2019-02-16T15:50:30.499Z,8.73
2019-02-16T15:52:59.421Z,8.57
2019-02-16T15:55:29.410Z,8.58
2019-02-16T15:57:58.635Z,8.26
2019-02-16T16:00:27.949Z,8.34
2019-02-16T16:02:57.278Z,8.30
2019-02-16T16:05:26.959Z,8.20
2019-02-16T16:09:02.198Z,8.08
2019-02-16T16:11:44.297Z,7.85
2019-02-16T16:14:20.099Z,7.79
2019-02-16T16:16:54.986Z,7.75
2019-02-16T16:19:35.150Z,7.71
2019-02-16T16:22:11.292Z,7.47
2019-02-16T16:24:46.139Z,7.52
2019-02-16T16:27:19.348Z,7.49
2019-02-16T16:29:58.552Z,7.39
2019-02-16T16:32:40.513Z,7.46
2019-02-16T16:35:17.353Z,7.36
2019-02-16T16:38:50.237Z,7.39
2019-02-16T16:41:42.380Z,7.39
2019-02-16T16:44:16.678Z,7.19
2019-02-16T16:46:50.332Z,7.04
2019-02-16T16:49:25.048Z,7.18
2019-02-16T16:52:05.439Z,7.24
2019-02-16T16:55:12.268Z,7.35
2019-02-16T16:57:45.475Z,7.19
2019-02-16T17:00:19.534Z,7.11
2019-02-16T17:03:13.911Z,7.05
2019-02-16T17:22:49.656Z,6.26
2019-02-16T17:25:26.661Z,5.95
2019-02-16T17:28:06.465Z,5.72
2019-02-16T17:30:41.155Z,5.92
2019-02-16T17:33:15.095Z,6.02
2019-02-16T17:35:55.252Z,5.68
2019-02-16T17:38:31.342Z,5.68
2019-02-16T17:41:10.568Z,5.70
2019-02-16T17:43:52.504Z,5.70
2019-02-16T17:46:31.890Z,5.73
2019-02-16T17:49:20.794Z,5.83
2019-02-16T17:52:03.845Z,5.74
2019-02-16T17:54:40.121Z,5.58
2019-02-16T17:57:14.983Z,5.48
2019-02-16T17:59:50.980Z,5.44
2019-02-16T18:02:27.185Z,5.50
2019-02-16T18:05:01.696Z,5.47
2019-02-16T18:24:33.203Z,4.83
2019-02-16T18:27:07.102Z,4.74
2019-02-16T18:46:48.059Z,4.51
2019-02-16T18:49:22.115Z,4.66
2019-02-16T18:52:05.052Z,4.60
2019-02-16T18:54:39.309Z,4.47
2019-02-16T18:57:13.182Z,4.29
2019-02-16T18:59:46.038Z,4.23
2019-02-16T19:19:06.392Z,3.89
2019-02-16T19:21:44.407Z,3.81
2019-02-16T19:25:18.080Z,3.86
2019-02-16T19:27:52.558Z,3.83
2019-02-16T19:47:46.726Z,3.67
2019-02-16T19:50:21.771Z,3.54
2019-02-16T19:52:56.019Z,3.57
2019-02-16T19:55:30.409Z,3.66
2019-02-16T20:14:48.123Z,3.37
2019-02-16T20:17:30.305Z,3.31
2019-02-16T20:20:36.649Z,3.38
2019-02-16T20:23:10.871Z,3.31
2019-02-16T20:25:45.003Z,3.31
2019-02-16T20:28:19.085Z,3.32
2019-02-16T20:30:57.031Z,3.35
2019-02-16T20:34:38.755Z,3.39
2019-02-16T20:37:20.005Z,3.41
2019-02-16T20:39:53.012Z,3.39
2019-02-16T20:42:43.479Z,3.37
2019-02-16T20:45:18.469Z,3.38
2019-02-16T20:47:53.532Z,3.28
2019-02-16T20:50:33.012Z,3.31
2019-02-16T20:53:09.912Z,3.21
2019-02-16T20:55:50.663Z,3.17
2019-02-16T21:00:28.020Z,3.09
2019-02-16T21:03:06.089Z,3.07
2019-02-16T21:05:41.347Z,3.06
2019-02-16T21:08:16.459Z,3.04
2019-02-16T21:10:58.627Z,3.04
2019-02-16T21:13:35.088Z,3.01
2019-02-16T21:16:12.141Z,3.10
2019-02-16T21:18:46.304Z,3.08
2019-02-16T21:39:04.108Z,2.80
2019-02-16T21:41:48.673Z,2.79
2019-02-16T21:44:24.790Z,2.70
2019-02-16T21:46:59.251Z,2.66
2019-02-16T21:49:33.513Z,2.56
2019-02-16T21:53:08.543Z,2.75
2019-02-16T21:55:56.959Z,2.78
2019-02-16T22:00:34.717Z,2.80
2019-02-16T22:03:44.167Z,2.65
2019-02-16T22:06:18.780Z,2.58
2019-02-16T22:09:02.654Z,2.51
2019-02-16T22:11:41.100Z,2.59
2019-02-16T22:14:10.124Z,2.61
2019-02-16T22:16:38.802Z,2.56
2019-02-16T22:19:08.597Z,2.46
2019-02-16T22:21:37.653Z,2.60
2019-02-16T22:24:06.993Z,2.58
2019-02-16T22:26:36.726Z,2.64
2019-02-16T22:29:05.828Z,2.51
2019-02-16T22:31:34.824Z,2.53
2019-02-16T22:34:03.687Z,2.42
2019-02-16T22:36:32.785Z,2.50
2019-02-16T22:39:02.812Z,2.47
2019-02-16T22:41:31.897Z,2.55
2019-02-16T22:44:02.427Z,2.57
2019-02-16T22:46:30.507Z,2.38
2019-02-16T22:48:59.499Z,2.32
2019-02-16T22:51:29.644Z,2.32
2019-02-16T22:53:58.566Z,2.32
2019-02-16T22:56:27.547Z,2.21
2019-02-16T22:58:57.261Z,2.16
2019-02-16T23:01:26.471Z,2.12
2019-02-16T23:03:55.669Z,2.00
2019-02-16T23:23:11.068Z,1.46
2019-02-16T23:25:40.339Z,1.38
2019-02-16T23:28:09.456Z,1.29
2019-02-16T23:30:38.551Z,1.21
2019-02-16T23:33:07.868Z,1.17
2019-02-16T23:35:37.003Z,1.14
2019-02-16T23:38:06.817Z,1.09
2019-02-16T23:40:35.852Z,1.10
2019-02-16T23:43:04.932Z,0.97
2019-02-16T23:45:34.618Z,1.03
2019-02-16T23:48:04.258Z,1.00
2019-02-16T23:50:33.212Z,0.96
2019-02-16T23:53:02.216Z,0.81
2019-02-16T23:55:31.070Z,0.83
2019-02-16T23:58:00.655Z,0.85
